Startpagina
METAR-TAF:

METAR-TAF

Vliegvelden :

Vliegveld de Kooy

Den Helder, Nederland

breedte: 52-55N, lengte: 004-47E, hoogte: 0 m

Actueel weer

Dit bericht is 34 minuten geleden gemaakt, om 05:55 UTC
Wind 7 kt uit het zuiden, variërend tussen het zuidzuidoosten en het zuidzuidwesten
Temperatuur 9°C
Vochtigheid 87%
Druk 1020 hPa
Zicht 10 km of meer
Geheel bewolkt op 24000 ft

METAR: EHKD 180555Z AUTO 18007KT 150V210 9999 OVC240 09/07 Q1020 BLU NOSIG

Tijdstip: 08:29 (06:29 UTC)

Verwachting

Dit bericht is 1 uur en het 50 minuten geleden gemaakt, om 04:39 UTC
Verwachting geldig van 18 om 05 UTC tot 18 om 17 UTC
Wind 9 kt uit het zuiden
Zicht 10 km of meer
geen wolken onder 1500 m en geen cumulonimbus

TAF: EHKD 180439Z 1805/1817 18009KT CAVOK

Waarnemingen en weersverwachtingen van meer dan 4000 vliegvelden (METAR en TAF).

De beschikbare stations zijn de gele en rode punten op de kaart.

Ga met uw muis naar het station om de naam te zien.

Klik dan om waarnemingen en weersverwachtingen te zien.

kaart wijzigen: klik op de groene knoppen met een zwart kruis om in te zoomen, op de groene knop met een streepje om uit te zoomen of op de groene pijlen voor aangrenzende kaarten.


METAR-TAF: